sensor_id;sensor_type;location;lat;lon;timestamp;P1;durP1;ratioP1;P2;durP2;ratioP2
14040;SDS011;7095;51.388;6.196;2023-03-26T00:01:38;38.77;;;6.10;;
14040;SDS011;7095;51.388;6.196;2023-03-26T00:04:12;43.80;;;7.33;;
14040;SDS011;7095;51.388;6.196;2023-03-26T00:06:45;31.67;;;6.63;;
14040;SDS011;7095;51.388;6.196;2023-03-26T00:09:16;37.97;;;9.10;;
14040;SDS011;7095;51.388;6.196;2023-03-26T00:11:45;21.40;;;5.23;;
14040;SDS011;7095;51.388;6.196;2023-03-26T00:14:13;42.63;;;6.73;;
14040;SDS011;7095;51.388;6.196;2023-03-26T00:16:43;37.63;;;7.00;;
14040;SDS011;7095;51.388;6.196;2023-03-26T00:19:13;37.70;;;6.93;;
14040;SDS011;7095;51.388;6.196;2023-03-26T00:21:42;45.73;;;6.93;;
14040;SDS011;7095;51.388;6.196;2023-03-26T00:24:11;33.60;;;5.77;;
14040;SDS011;7095;51.388;6.196;2023-03-26T00:26:43;34.17;;;5.50;;
14040;SDS011;7095;51.388;6.196;2023-03-26T00:29:19;40.27;;;6.33;;
14040;SDS011;7095;51.388;6.196;2023-03-26T00:31:49;39.77;;;6.50;;
14040;SDS011;7095;51.388;6.196;2023-03-26T00:34:17;41.43;;;7.33;;
14040;SDS011;7095;51.388;6.196;2023-03-26T00:36:46;32.83;;;6.07;;
14040;SDS011;7095;51.388;6.196;2023-03-26T00:39:20;38.23;;;6.90;;
14040;SDS011;7095;51.388;6.196;2023-03-26T00:41:52;30.50;;;6.73;;
14040;SDS011;7095;51.388;6.196;2023-03-26T00:44:21;32.53;;;5.23;;
14040;SDS011;7095;51.388;6.196;2023-03-26T00:46:49;33.00;;;5.70;;
14040;SDS011;7095;51.388;6.196;2023-03-26T00:49:18;31.90;;;5.57;;
14040;SDS011;7095;51.388;6.196;2023-03-26T00:51:46;32.50;;;6.17;;
14040;SDS011;7095;51.388;6.196;2023-03-26T00:54:15;29.80;;;6.10;;
14040;SDS011;7095;51.388;6.196;2023-03-26T00:56:43;35.13;;;6.83;;
14040;SDS011;7095;51.388;6.196;2023-03-26T00:59:14;35.80;;;5.27;;
14040;SDS011;7095;51.388;6.196;2023-03-26T01:01:42;26.67;;;5.77;;
14040;SDS011;7095;51.388;6.196;2023-03-26T01:04:22;41.50;;;6.03;;
14040;SDS011;7095;51.388;6.196;2023-03-26T01:06:57;33.00;;;5.60;;
14040;SDS011;7095;51.388;6.196;2023-03-26T01:09:31;27.43;;;5.07;;
14040;SDS011;7095;51.388;6.196;2023-03-26T01:12:03;35.27;;;6.20;;
14040;SDS011;7095;51.388;6.196;2023-03-26T01:14:37;32.67;;;6.37;;
14040;SDS011;7095;51.388;6.196;2023-03-26T01:17:06;36.13;;;6.77;;
14040;SDS011;7095;51.388;6.196;2023-03-26T01:19:36;27.33;;;4.80;;
14040;SDS011;7095;51.388;6.196;2023-03-26T01:22:13;25.00;;;5.67;;
14040;SDS011;7095;51.388;6.196;2023-03-26T01:24:46;30.03;;;5.47;;
14040;SDS011;7095;51.388;6.196;2023-03-26T01:27:22;44.53;;;6.47;;
14040;SDS011;7095;51.388;6.196;2023-03-26T01:30:00;36.20;;;6.13;;
14040;SDS011;7095;51.388;6.196;2023-03-26T01:32:48;37.73;;;5.80;;
14040;SDS011;7095;51.388;6.196;2023-03-26T01:35:27;32.93;;;6.27;;
14040;SDS011;7095;51.388;6.196;2023-03-26T01:38:07;44.67;;;5.90;;
14040;SDS011;7095;51.388;6.196;2023-03-26T01:40:45;40.20;;;7.30;;
14040;SDS011;7095;51.388;6.196;2023-03-26T01:43:21;33.73;;;5.33;;
14040;SDS011;7095;51.388;6.196;2023-03-26T01:45:55;25.77;;;5.23;;
14040;SDS011;7095;51.388;6.196;2023-03-26T01:48:27;32.43;;;5.57;;
14040;SDS011;7095;51.388;6.196;2023-03-26T01:50:58;23.57;;;4.87;;
14040;SDS011;7095;51.388;6.196;2023-03-26T01:53:26;32.37;;;6.13;;
14040;SDS011;7095;51.388;6.196;2023-03-26T01:56:00;32.57;;;6.50;;
14040;SDS011;7095;51.388;6.196;2023-03-26T01:58:40;32.07;;;5.60;;
14040;SDS011;7095;51.388;6.196;2023-03-26T02:01:21;35.63;;;5.67;;
14040;SDS011;7095;51.388;6.196;2023-03-26T02:03:58;35.90;;;7.23;;
14040;SDS011;7095;51.388;6.196;2023-03-26T02:06:33;30.07;;;5.67;;
14040;SDS011;7095;51.388;6.196;2023-03-26T02:09:09;28.60;;;5.90;;
14040;SDS011;7095;51.388;6.196;2023-03-26T02:11:43;30.63;;;5.40;;
14040;SDS011;7095;51.388;6.196;2023-03-26T02:14:13;36.40;;;5.87;;
14040;SDS011;7095;51.388;6.196;2023-03-26T02:16:42;23.70;;;5.27;;
14040;SDS011;7095;51.388;6.196;2023-03-26T02:19:13;28.80;;;5.57;;
14040;SDS011;7095;51.388;6.196;2023-03-26T02:21:48;31.17;;;5.43;;
14040;SDS011;7095;51.388;6.196;2023-03-26T02:24:19;40.13;;;6.37;;
14040;SDS011;7095;51.388;6.196;2023-03-26T02:26:53;31.80;;;5.73;;
14040;SDS011;7095;51.388;6.196;2023-03-26T02:29:24;27.13;;;6.37;;
14040;SDS011;7095;51.388;6.196;2023-03-26T02:31:53;31.13;;;5.37;;
14040;SDS011;7095;51.388;6.196;2023-03-26T02:34:24;32.97;;;6.90;;
14040;SDS011;7095;51.388;6.196;2023-03-26T02:36:53;36.97;;;6.37;;
14040;SDS011;7095;51.388;6.196;2023-03-26T02:39:23;29.23;;;5.67;;
14040;SDS011;7095;51.388;6.196;2023-03-26T02:41:58;36.07;;;6.30;;
14040;SDS011;7095;51.388;6.196;2023-03-26T02:44:30;35.30;;;6.23;;
14040;SDS011;7095;51.388;6.196;2023-03-26T02:46:59;29.03;;;6.30;;
14040;SDS011;7095;51.388;6.196;2023-03-26T02:49:30;30.37;;;5.83;;
14040;SDS011;7095;51.388;6.196;2023-03-26T02:51:59;39.07;;;6.00;;
14040;SDS011;7095;51.388;6.196;2023-03-26T02:54:33;19.37;;;4.33;;
14040;SDS011;7095;51.388;6.196;2023-03-26T02:57:07;31.13;;;4.60;;
14040;SDS011;7095;51.388;6.196;2023-03-26T02:59:51;28.10;;;5.53;;
14040;SDS011;7095;51.388;6.196;2023-03-26T03:02:48;30.73;;;5.70;;
14040;SDS011;7095;51.388;6.196;2023-03-26T03:05:31;33.93;;;5.37;;
14040;SDS011;7095;51.388;6.196;2023-03-26T03:08:18;38.10;;;6.20;;
14040;SDS011;7095;51.388;6.196;2023-03-26T03:11:14;29.73;;;5.20;;
14040;SDS011;7095;51.388;6.196;2023-03-26T03:13:50;24.87;;;5.13;;
14040;SDS011;7095;51.388;6.196;2023-03-26T03:16:27;30.90;;;5.27;;
14040;SDS011;7095;51.388;6.196;2023-03-26T03:18:58;26.07;;;5.03;;
14040;SDS011;7095;51.388;6.196;2023-03-26T03:21:38;32.23;;;6.43;;
14040;SDS011;7095;51.388;6.196;2023-03-26T03:24:07;32.37;;;5.00;;
14040;SDS011;7095;51.388;6.196;2023-03-26T03:26:43;28.57;;;5.27;;
14040;SDS011;7095;51.388;6.196;2023-03-26T03:29:50;33.33;;;5.57;;
14040;SDS011;7095;51.388;6.196;2023-03-26T03:32:41;27.07;;;5.30;;
14040;SDS011;7095;51.388;6.196;2023-03-26T03:35:12;23.50;;;4.93;;
14040;SDS011;7095;51.388;6.196;2023-03-26T03:37:43;23.57;;;5.70;;
14040;SDS011;7095;51.388;6.196;2023-03-26T03:40:12;23.73;;;4.87;;
14040;SDS011;7095;51.388;6.196;2023-03-26T03:42:41;26.67;;;5.03;;
14040;SDS011;7095;51.388;6.196;2023-03-26T03:45:12;28.30;;;6.27;;
14040;SDS011;7095;51.388;6.196;2023-03-26T03:48:01;36.37;;;6.67;;
14040;SDS011;7095;51.388;6.196;2023-03-26T03:50:43;36.60;;;6.60;;
14040;SDS011;7095;51.388;6.196;2023-03-26T03:53:22;29.50;;;5.53;;
14040;SDS011;7095;51.388;6.196;2023-03-26T03:55:54;30.27;;;5.70;;
14040;SDS011;7095;51.388;6.196;2023-03-26T03:58:37;28.90;;;5.03;;
14040;SDS011;7095;51.388;6.196;2023-03-26T04:01:13;23.57;;;4.47;;
14040;SDS011;7095;51.388;6.196;2023-03-26T04:03:57;22.63;;;4.73;;
14040;SDS011;7095;51.388;6.196;2023-03-26T04:06:39;21.57;;;4.93;;
14040;SDS011;7095;51.388;6.196;2023-03-26T04:09:10;30.63;;;4.63;;
14040;SDS011;7095;51.388;6.196;2023-03-26T04:11:38;24.20;;;5.67;;
14040;SDS011;7095;51.388;6.196;2023-03-26T04:14:21;22.57;;;4.27;;
14040;SDS011;7095;51.388;6.196;2023-03-26T04:17:14;27.13;;;5.63;;
14040;SDS011;7095;51.388;6.196;2023-03-26T04:19:44;23.87;;;5.20;;
14040;SDS011;7095;51.388;6.196;2023-03-26T04:22:14;22.43;;;4.37;;
14040;SDS011;7095;51.388;6.196;2023-03-26T04:24:53;32.40;;;4.97;;
14040;SDS011;7095;51.388;6.196;2023-03-26T04:27:50;16.80;;;4.67;;
14040;SDS011;7095;51.388;6.196;2023-03-26T04:30:42;18.37;;;4.07;;
14040;SDS011;7095;51.388;6.196;2023-03-26T04:33:28;23.97;;;5.20;;
14040;SDS011;7095;51.388;6.196;2023-03-26T04:35:59;29.13;;;4.67;;
14040;SDS011;7095;51.388;6.196;2023-03-26T04:38:33;25.03;;;4.73;;
14040;SDS011;7095;51.388;6.196;2023-03-26T04:41:11;23.23;;;4.43;;
14040;SDS011;7095;51.388;6.196;2023-03-26T04:43:55;29.77;;;4.90;;
14040;SDS011;7095;51.388;6.196;2023-03-26T04:46:56;24.73;;;4.40;;
14040;SDS011;7095;51.388;6.196;2023-03-26T04:49:41;21.10;;;3.80;;
14040;SDS011;7095;51.388;6.196;2023-03-26T04:52:12;22.27;;;3.60;;
14040;SDS011;7095;51.388;6.196;2023-03-26T04:55:06;19.27;;;4.73;;
14040;SDS011;7095;51.388;6.196;2023-03-26T04:57:42;19.57;;;4.43;;
14040;SDS011;7095;51.388;6.196;2023-03-26T05:00:34;24.77;;;3.77;;
14040;SDS011;7095;51.388;6.196;2023-03-26T05:03:03;21.07;;;4.03;;
14040;SDS011;7095;51.388;6.196;2023-03-26T05:05:33;23.87;;;4.90;;
14040;SDS011;7095;51.388;6.196;2023-03-26T05:08:03;14.43;;;3.50;;
14040;SDS011;7095;51.388;6.196;2023-03-26T05:10:32;23.10;;;3.70;;
14040;SDS011;7095;51.388;6.196;2023-03-26T05:13:03;19.33;;;4.27;;
14040;SDS011;7095;51.388;6.196;2023-03-26T05:15:34;21.67;;;4.63;;
14040;SDS011;7095;51.388;6.196;2023-03-26T05:18:21;15.97;;;3.47;;
14040;SDS011;7095;51.388;6.196;2023-03-26T05:20:53;30.13;;;4.07;;
14040;SDS011;7095;51.388;6.196;2023-03-26T05:23:24;27.70;;;4.50;;
14040;SDS011;7095;51.388;6.196;2023-03-26T05:26:05;17.73;;;4.13;;
14040;SDS011;7095;51.388;6.196;2023-03-26T05:28:34;19.20;;;3.63;;
14040;SDS011;7095;51.388;6.196;2023-03-26T05:31:11;23.80;;;4.20;;
14040;SDS011;7095;51.388;6.196;2023-03-26T05:33:44;21.53;;;4.33;;
14040;SDS011;7095;51.388;6.196;2023-03-26T05:36:14;25.80;;;4.63;;
14040;SDS011;7095;51.388;6.196;2023-03-26T05:38:57;21.27;;;4.03;;
14040;SDS011;7095;51.388;6.196;2023-03-26T05:41:44;18.33;;;3.83;;
14040;SDS011;7095;51.388;6.196;2023-03-26T05:44:13;23.07;;;4.47;;
14040;SDS011;7095;51.388;6.196;2023-03-26T05:46:41;29.00;;;5.17;;
14040;SDS011;7095;51.388;6.196;2023-03-26T05:49:17;18.97;;;4.27;;
14040;SDS011;7095;51.388;6.196;2023-03-26T05:51:48;24.30;;;4.60;;
14040;SDS011;7095;51.388;6.196;2023-03-26T05:54:45;20.33;;;4.30;;
14040;SDS011;7095;51.388;6.196;2023-03-26T05:57:32;23.87;;;4.97;;
14040;SDS011;7095;51.388;6.196;2023-03-26T06:00:27;26.40;;;4.40;;
14040;SDS011;7095;51.388;6.196;2023-03-26T06:02:55;22.43;;;5.57;;
14040;SDS011;7095;51.388;6.196;2023-03-26T06:05:47;24.57;;;4.73;;
14040;SDS011;7095;51.388;6.196;2023-03-26T06:08:20;22.47;;;4.73;;
14040;SDS011;7095;51.388;6.196;2023-03-26T06:10:50;20.63;;;4.37;;
14040;SDS011;7095;51.388;6.196;2023-03-26T06:13:25;20.23;;;4.10;;
14040;SDS011;7095;51.388;6.196;2023-03-26T06:15:55;24.70;;;4.47;;
14040;SDS011;7095;51.388;6.196;2023-03-26T06:18:29;25.30;;;5.23;;
14040;SDS011;7095;51.388;6.196;2023-03-26T06:21:17;28.30;;;6.77;;
14040;SDS011;7095;51.388;6.196;2023-03-26T06:23:54;21.87;;;4.10;;
14040;SDS011;7095;51.388;6.196;2023-03-26T06:26:48;23.07;;;4.40;;
14040;SDS011;7095;51.388;6.196;2023-03-26T06:29:26;26.57;;;4.57;;
14040;SDS011;7095;51.388;6.196;2023-03-26T06:32:18;20.43;;;4.77;;
14040;SDS011;7095;51.388;6.196;2023-03-26T06:34:54;21.33;;;4.43;;
14040;SDS011;7095;51.388;6.196;2023-03-26T06:37:23;23.50;;;4.20;;
14040;SDS011;7095;51.388;6.196;2023-03-26T06:39:57;20.80;;;4.63;;
14040;SDS011;7095;51.388;6.196;2023-03-26T06:42:59;22.00;;;4.70;;
14040;SDS011;7095;51.388;6.196;2023-03-26T06:45:59;16.47;;;4.23;;
14040;SDS011;7095;51.388;6.196;2023-03-26T06:48:36;29.87;;;4.77;;
14040;SDS011;7095;51.388;6.196;2023-03-26T06:51:23;20.23;;;4.43;;
14040;SDS011;7095;51.388;6.196;2023-03-26T06:54:19;25.13;;;5.13;;
14040;SDS011;7095;51.388;6.196;2023-03-26T06:57:01;20.03;;;4.63;;
14040;SDS011;7095;51.388;6.196;2023-03-26T07:00:06;26.30;;;4.50;;
14040;SDS011;7095;51.388;6.196;2023-03-26T07:02:54;28.17;;;5.40;;
14040;SDS011;7095;51.388;6.196;2023-03-26T07:05:41;25.53;;;5.97;;
14040;SDS011;7095;51.388;6.196;2023-03-26T07:08:28;21.23;;;4.67;;
14040;SDS011;7095;51.388;6.196;2023-03-26T07:11:16;20.70;;;4.63;;
14040;SDS011;7095;51.388;6.196;2023-03-26T07:14:10;26.50;;;4.90;;
14040;SDS011;7095;51.388;6.196;2023-03-26T07:16:39;28.60;;;5.33;;
14040;SDS011;7095;51.388;6.196;2023-03-26T07:19:31;20.43;;;5.17;;
14040;SDS011;7095;51.388;6.196;2023-03-26T07:22:02;25.40;;;5.00;;
14040;SDS011;7095;51.388;6.196;2023-03-26T07:24:54;59.17;;;7.80;;
14040;SDS011;7095;51.388;6.196;2023-03-26T07:27:49;36.87;;;7.40;;
14040;SDS011;7095;51.388;6.196;2023-03-26T07:30:51;28.90;;;5.17;;
14040;SDS011;7095;51.388;6.196;2023-03-26T07:33:38;18.40;;;4.37;;
14040;SDS011;7095;51.388;6.196;2023-03-26T07:36:41;23.00;;;4.97;;
14040;SDS011;7095;51.388;6.196;2023-03-26T07:39:32;16.63;;;4.30;;
14040;SDS011;7095;51.388;6.196;2023-03-26T07:42:43;18.17;;;4.57;;
14040;SDS011;7095;51.388;6.196;2023-03-26T07:45:39;22.63;;;4.73;;
14040;SDS011;7095;51.388;6.196;2023-03-26T07:48:34;32.53;;;6.10;;
14040;SDS011;7095;51.388;6.196;2023-03-26T07:51:20;23.00;;;4.80;;
14040;SDS011;7095;51.388;6.196;2023-03-26T07:54:07;17.77;;;4.53;;
14040;SDS011;7095;51.388;6.196;2023-03-26T07:56:54;22.70;;;4.30;;
14040;SDS011;7095;51.388;6.196;2023-03-26T07:59:28;20.00;;;4.80;;
14040;SDS011;7095;51.388;6.196;2023-03-26T08:02:32;24.67;;;4.63;;
14040;SDS011;7095;51.388;6.196;2023-03-26T08:05:31;25.23;;;4.97;;
14040;SDS011;7095;51.388;6.196;2023-03-26T08:08:38;29.57;;;4.90;;
14040;SDS011;7095;51.388;6.196;2023-03-26T08:11:39;21.03;;;5.13;;
14040;SDS011;7095;51.388;6.196;2023-03-26T08:14:24;21.23;;;4.47;;
14040;SDS011;7095;51.388;6.196;2023-03-26T08:17:00;24.13;;;4.93;;
14040;SDS011;7095;51.388;6.196;2023-03-26T08:22:26;21.17;;;4.80;;
14040;SDS011;7095;51.388;6.196;2023-03-26T08:25:07;21.67;;;4.53;;
14040;SDS011;7095;51.388;6.196;2023-03-26T08:27:46;17.60;;;4.87;;
14040;SDS011;7095;51.388;6.196;2023-03-26T08:30:22;18.67;;;5.67;;
14040;SDS011;7095;51.388;6.196;2023-03-26T08:32:53;22.03;;;4.80;;
14040;SDS011;7095;51.388;6.196;2023-03-26T08:35:24;18.50;;;4.93;;
14040;SDS011;7095;51.388;6.196;2023-03-26T08:37:55;21.20;;;4.83;;
14040;SDS011;7095;51.388;6.196;2023-03-26T08:40:40;18.70;;;4.73;;
14040;SDS011;7095;51.388;6.196;2023-03-26T08:43:37;22.30;;;5.00;;
14040;SDS011;7095;51.388;6.196;2023-03-26T08:46:32;20.03;;;4.30;;
14040;SDS011;7095;51.388;6.196;2023-03-26T08:52:28;18.93;;;4.33;;
14040;SDS011;7095;51.388;6.196;2023-03-26T08:55:19;20.27;;;4.90;;
14040;SDS011;7095;51.388;6.196;2023-03-26T08:58:20;21.57;;;5.17;;
14040;SDS011;7095;51.388;6.196;2023-03-26T09:01:08;15.73;;;5.80;;
14040;SDS011;7095;51.388;6.196;2023-03-26T09:10:07;17.93;;;5.53;;
14040;SDS011;7095;51.388;6.196;2023-03-26T09:13:30;10.73;;;5.33;;
14040;SDS011;7095;51.388;6.196;2023-03-26T09:19:27;18.07;;;6.63;;
14040;SDS011;7095;51.388;6.196;2023-03-26T09:34:45;11.90;;;7.30;;
14040;SDS011;7095;51.388;6.196;2023-03-26T09:37:36;17.63;;;6.80;;
14040;SDS011;7095;51.388;6.196;2023-03-26T09:40:27;17.53;;;6.70;;
14040;SDS011;7095;51.388;6.196;2023-03-26T09:43:13;16.70;;;7.27;;
14040;SDS011;7095;51.388;6.196;2023-03-26T09:46:13;20.50;;;6.70;;
14040;SDS011;7095;51.388;6.196;2023-03-26T09:51:55;17.43;;;6.23;;
14040;SDS011;7095;51.388;6.196;2023-03-26T09:57:56;19.73;;;6.03;;
14040;SDS011;7095;51.388;6.196;2023-03-26T10:00:35;13.80;;;5.13;;
14040;SDS011;7095;51.388;6.196;2023-03-26T10:03:18;14.47;;;5.10;;
14040;SDS011;7095;51.388;6.196;2023-03-26T10:08:56;14.57;;;3.50;;
14040;SDS011;7095;51.388;6.196;2023-03-26T10:11:39;11.53;;;3.90;;
14040;SDS011;7095;51.388;6.196;2023-03-26T10:14:23;9.37;;;3.23;;
14040;SDS011;7095;51.388;6.196;2023-03-26T10:17:03;11.43;;;3.93;;
14040;SDS011;7095;51.388;6.196;2023-03-26T10:19:47;8.37;;;3.37;;
14040;SDS011;7095;51.388;6.196;2023-03-26T10:22:33;8.57;;;2.87;;
14040;SDS011;7095;51.388;6.196;2023-03-26T10:25:27;8.47;;;3.27;;
14040;SDS011;7095;51.388;6.196;2023-03-26T10:28:07;14.23;;;3.33;;
14040;SDS011;7095;51.388;6.196;2023-03-26T10:30:56;10.33;;;3.37;;
14040;SDS011;7095;51.388;6.196;2023-03-26T10:33:37;12.80;;;3.67;;
14040;SDS011;7095;51.388;6.196;2023-03-26T10:36:26;9.20;;;3.50;;
14040;SDS011;7095;51.388;6.196;2023-03-26T10:39:00;12.40;;;3.73;;
14040;SDS011;7095;51.388;6.196;2023-03-26T10:42:09;6.40;;;2.47;;
14040;SDS011;7095;51.388;6.196;2023-03-26T10:45:07;10.03;;;2.33;;
14040;SDS011;7095;51.388;6.196;2023-03-26T10:48:01;6.27;;;2.23;;
14040;SDS011;7095;51.388;6.196;2023-03-26T10:50:56;6.97;;;2.57;;
14040;SDS011;7095;51.388;6.196;2023-03-26T10:53:42;9.47;;;2.60;;
14040;SDS011;7095;51.388;6.196;2023-03-26T10:56:19;11.00;;;2.53;;
14040;SDS011;7095;51.388;6.196;2023-03-26T10:59:01;6.83;;;2.60;;
14040;SDS011;7095;51.388;6.196;2023-03-26T11:01:38;7.00;;;2.43;;
14040;SDS011;7095;51.388;6.196;2023-03-26T11:04:20;9.87;;;2.20;;
14040;SDS011;7095;51.388;6.196;2023-03-26T11:07:01;3.83;;;1.50;;
14040;SDS011;7095;51.388;6.196;2023-03-26T11:09:42;3.27;;;1.37;;
14040;SDS011;7095;51.388;6.196;2023-03-26T11:12:20;5.97;;;1.40;;
14040;SDS011;7095;51.388;6.196;2023-03-26T11:15:00;3.77;;;1.50;;
14040;SDS011;7095;51.388;6.196;2023-03-26T11:17:42;1.93;;;0.97;;
14040;SDS011;7095;51.388;6.196;2023-03-26T11:20:19;2.97;;;1.20;;
14040;SDS011;7095;51.388;6.196;2023-03-26T11:22:59;3.27;;;1.27;;
14040;SDS011;7095;51.388;6.196;2023-03-26T11:25:51;4.33;;;1.03;;
14040;SDS011;7095;51.388;6.196;2023-03-26T11:28:32;2.80;;;1.50;;
14040;SDS011;7095;51.388;6.196;2023-03-26T11:31:35;3.83;;;1.37;;
14040;SDS011;7095;51.388;6.196;2023-03-26T11:34:13;3.67;;;1.27;;
14040;SDS011;7095;51.388;6.196;2023-03-26T11:36:46;3.60;;;1.23;;
14040;SDS011;7095;51.388;6.196;2023-03-26T11:39:18;7.37;;;1.70;;
14040;SDS011;7095;51.388;6.196;2023-03-26T11:41:54;2.77;;;1.23;;
14040;SDS011;7095;51.388;6.196;2023-03-26T11:44:40;1.20;;;1.10;;
14040;SDS011;7095;51.388;6.196;2023-03-26T11:47:14;2.23;;;1.00;;
14040;SDS011;7095;51.388;6.196;2023-03-26T11:49:49;2.47;;;1.10;;
14040;SDS011;7095;51.388;6.196;2023-03-26T11:52:19;3.93;;;0.90;;
14040;SDS011;7095;51.388;6.196;2023-03-26T11:54:48;1.93;;;1.20;;
14040;SDS011;7095;51.388;6.196;2023-03-26T11:57:19;0.63;;;0.50;;
14040;SDS011;7095;51.388;6.196;2023-03-26T11:59:53;2.63;;;0.80;;
14040;SDS011;7095;51.388;6.196;2023-03-26T12:02:38;2.33;;;1.07;;
14040;SDS011;7095;51.388;6.196;2023-03-26T12:05:12;2.20;;;0.90;;
14040;SDS011;7095;51.388;6.196;2023-03-26T12:07:45;1.37;;;0.90;;
14040;SDS011;7095;51.388;6.196;2023-03-26T12:10:21;3.60;;;1.60;;
14040;SDS011;7095;51.388;6.196;2023-03-26T12:13:04;1.07;;;0.97;;
14040;SDS011;7095;51.388;6.196;2023-03-26T12:15:56;1.43;;;1.00;;
14040;SDS011;7095;51.388;6.196;2023-03-26T12:18:25;3.30;;;1.17;;
14040;SDS011;7095;51.388;6.196;2023-03-26T12:21:02;1.53;;;1.40;;
14040;SDS011;7095;51.388;6.196;2023-03-26T12:23:36;2.03;;;0.80;;
14040;SDS011;7095;51.388;6.196;2023-03-26T12:26:10;3.87;;;0.90;;
14040;SDS011;7095;51.388;6.196;2023-03-26T12:28:46;2.00;;;1.00;;
14040;SDS011;7095;51.388;6.196;2023-03-26T12:31:18;1.40;;;1.30;;
14040;SDS011;7095;51.388;6.196;2023-03-26T12:34:01;2.97;;;1.40;;
14040;SDS011;7095;51.388;6.196;2023-03-26T12:36:33;1.60;;;1.10;;
14040;SDS011;7095;51.388;6.196;2023-03-26T12:39:14;1.33;;;0.90;;
14040;SDS011;7095;51.388;6.196;2023-03-26T12:42:23;2.00;;;0.90;;
14040;SDS011;7095;51.388;6.196;2023-03-26T12:45:15;1.17;;;0.50;;
14040;SDS011;7095;51.388;6.196;2023-03-26T12:47:48;2.10;;;0.80;;
14040;SDS011;7095;51.388;6.196;2023-03-26T12:50:33;2.40;;;0.60;;
14040;SDS011;7095;51.388;6.196;2023-03-26T12:53:21;3.33;;;1.00;;
14040;SDS011;7095;51.388;6.196;2023-03-26T12:56:05;1.83;;;1.10;;
14040;SDS011;7095;51.388;6.196;2023-03-26T13:01:45;3.10;;;1.00;;
14040;SDS011;7095;51.388;6.196;2023-03-26T13:07:36;2.20;;;2.00;;
14040;SDS011;7095;51.388;6.196;2023-03-26T13:10:25;2.40;;;1.70;;
14040;SDS011;7095;51.388;6.196;2023-03-26T13:13:28;2.67;;;1.90;;
14040;SDS011;7095;51.388;6.196;2023-03-26T13:16:23;2.30;;;1.90;;
14040;SDS011;7095;51.388;6.196;2023-03-26T13:19:02;3.47;;;2.30;;
14040;SDS011;7095;51.388;6.196;2023-03-26T13:21:38;3.53;;;1.70;;
14040;SDS011;7095;51.388;6.196;2023-03-26T13:24:20;3.47;;;1.73;;
14040;SDS011;7095;51.388;6.196;2023-03-26T13:27:04;2.10;;;0.60;;
14040;SDS011;7095;51.388;6.196;2023-03-26T13:29:45;1.23;;;0.70;;
14040;SDS011;7095;51.388;6.196;2023-03-26T13:32:25;0.87;;;0.60;;
14040;SDS011;7095;51.388;6.196;2023-03-26T13:35:10;3.13;;;0.33;;
14040;SDS011;7095;51.388;6.196;2023-03-26T13:37:47;0.30;;;0.30;;
14040;SDS011;7095;51.388;6.196;2023-03-26T13:40:24;1.43;;;0.43;;
14040;SDS011;7095;51.388;6.196;2023-03-26T13:45:53;0.07;;;0.07;;
14040;SDS011;7095;51.388;6.196;2023-03-26T13:48:26;0.27;;;0.27;;
14040;SDS011;7095;51.388;6.196;2023-03-26T13:51:01;0.53;;;0.10;;
14040;SDS011;7095;51.388;6.196;2023-03-26T13:53:36;0.40;;;0.30;;
14040;SDS011;7095;51.388;6.196;2023-03-26T13:56:11;0.23;;;0.20;;
14040;SDS011;7095;51.388;6.196;2023-03-26T13:58:46;0.70;;;0.40;;
14040;SDS011;7095;51.388;6.196;2023-03-26T14:01:18;1.07;;;0.60;;
14040;SDS011;7095;51.388;6.196;2023-03-26T14:03:50;0.60;;;0.50;;
14040;SDS011;7095;51.388;6.196;2023-03-26T14:06:29;0.70;;;0.70;;
14040;SDS011;7095;51.388;6.196;2023-03-26T14:09:11;1.03;;;0.93;;
14040;SDS011;7095;51.388;6.196;2023-03-26T14:11:47;2.00;;;1.50;;
14040;SDS011;7095;51.388;6.196;2023-03-26T14:14:30;1.53;;;1.37;;
14040;SDS011;7095;51.388;6.196;2023-03-26T14:17:05;1.93;;;1.80;;
14040;SDS011;7095;51.388;6.196;2023-03-26T14:22:53;3.20;;;1.80;;
14040;SDS011;7095;51.388;6.196;2023-03-26T14:25:37;1.50;;;1.40;;
14040;SDS011;7095;51.388;6.196;2023-03-26T14:28:18;2.57;;;1.80;;
14040;SDS011;7095;51.388;6.196;2023-03-26T14:31:04;5.00;;;2.00;;
14040;SDS011;7095;51.388;6.196;2023-03-26T14:33:58;2.20;;;1.50;;
14040;SDS011;7095;51.388;6.196;2023-03-26T14:36:37;2.40;;;1.97;;
14040;SDS011;7095;51.388;6.196;2023-03-26T14:39:43;4.23;;;2.20;;
14040;SDS011;7095;51.388;6.196;2023-03-26T14:42:27;3.17;;;2.57;;
14040;SDS011;7095;51.388;6.196;2023-03-26T14:45:08;2.93;;;2.50;;
14040;SDS011;7095;51.388;6.196;2023-03-26T14:48:04;2.50;;;2.30;;
14040;SDS011;7095;51.388;6.196;2023-03-26T14:50:57;5.40;;;2.73;;
14040;SDS011;7095;51.388;6.196;2023-03-26T14:53:33;6.33;;;3.53;;
14040;SDS011;7095;51.388;6.196;2023-03-26T14:56:13;4.33;;;3.23;;
14040;SDS011;7095;51.388;6.196;2023-03-26T14:59:10;5.53;;;3.73;;
14040;SDS011;7095;51.388;6.196;2023-03-26T15:02:05;3.70;;;3.27;;
14040;SDS011;7095;51.388;6.196;2023-03-26T15:05:12;5.97;;;3.80;;
14040;SDS011;7095;51.388;6.196;2023-03-26T15:08:19;5.33;;;4.17;;
14040;SDS011;7095;51.388;6.196;2023-03-26T15:11:22;4.97;;;3.93;;
14040;SDS011;7095;51.388;6.196;2023-03-26T15:14:01;6.50;;;4.00;;
14040;SDS011;7095;51.388;6.196;2023-03-26T15:16:55;9.23;;;4.80;;
14040;SDS011;7095;51.388;6.196;2023-03-26T15:19:54;7.37;;;4.67;;
14040;SDS011;7095;51.388;6.196;2023-03-26T15:22:58;10.53;;;4.70;;
14040;SDS011;7095;51.388;6.196;2023-03-26T15:25:52;10.30;;;5.07;;
14040;SDS011;7095;51.388;6.196;2023-03-26T15:31:58;10.27;;;6.63;;
14040;SDS011;7095;51.388;6.196;2023-03-26T15:35:04;19.77;;;7.97;;
14040;SDS011;7095;51.388;6.196;2023-03-26T15:37:52;16.30;;;7.73;;
14040;SDS011;7095;51.388;6.196;2023-03-26T15:40:43;19.30;;;7.70;;
14040;SDS011;7095;51.388;6.196;2023-03-26T15:43:23;17.00;;;8.53;;
14040;SDS011;7095;51.388;6.196;2023-03-26T15:46:06;23.73;;;10.10;;
14040;SDS011;7095;51.388;6.196;2023-03-26T15:48:56;20.80;;;9.17;;
14040;SDS011;7095;51.388;6.196;2023-03-26T15:51:41;22.87;;;9.57;;
14040;SDS011;7095;51.388;6.196;2023-03-26T15:54:20;31.40;;;9.93;;
14040;SDS011;7095;51.388;6.196;2023-03-26T15:56:59;26.23;;;9.40;;
14040;SDS011;7095;51.388;6.196;2023-03-26T15:59:47;22.03;;;8.73;;
14040;SDS011;7095;51.388;6.196;2023-03-26T16:02:43;34.47;;;9.13;;
14040;SDS011;7095;51.388;6.196;2023-03-26T16:05:26;24.37;;;9.40;;
14040;SDS011;7095;51.388;6.196;2023-03-26T16:08:05;27.63;;;9.50;;
14040;SDS011;7095;51.388;6.196;2023-03-26T16:10:43;25.67;;;9.20;;
14040;SDS011;7095;51.388;6.196;2023-03-26T16:13:32;21.50;;;8.10;;
14040;SDS011;7095;51.388;6.196;2023-03-26T16:16:22;23.83;;;8.10;;
14040;SDS011;7095;51.388;6.196;2023-03-26T16:18:55;29.37;;;7.70;;
14040;SDS011;7095;51.388;6.196;2023-03-26T16:21:35;28.47;;;7.03;;
14040;SDS011;7095;51.388;6.196;2023-03-26T16:27:03;33.20;;;7.90;;
14040;SDS011;7095;51.388;6.196;2023-03-26T16:32:46;28.37;;;7.63;;
14040;SDS011;7095;51.388;6.196;2023-03-26T16:41:21;15.17;;;4.80;;
14040;SDS011;7095;51.388;6.196;2023-03-26T16:43:54;17.93;;;4.93;;
14040;SDS011;7095;51.388;6.196;2023-03-26T16:46:36;19.37;;;5.37;;
14040;SDS011;7095;51.388;6.196;2023-03-26T16:49:15;24.70;;;5.83;;
14040;SDS011;7095;51.388;6.196;2023-03-26T16:51:57;16.07;;;4.47;;
14040;SDS011;7095;51.388;6.196;2023-03-26T16:54:40;17.93;;;4.30;;
14040;SDS011;7095;51.388;6.196;2023-03-26T17:00:21;13.73;;;4.47;;
14040;SDS011;7095;51.388;6.196;2023-03-26T17:03:25;16.40;;;4.50;;
14040;SDS011;7095;51.388;6.196;2023-03-26T17:06:04;21.17;;;4.00;;
14040;SDS011;7095;51.388;6.196;2023-03-26T17:08:47;22.23;;;3.83;;
14040;SDS011;7095;51.388;6.196;2023-03-26T17:11:27;19.73;;;3.70;;
14040;SDS011;7095;51.388;6.196;2023-03-26T17:14:08;16.50;;;3.10;;
14040;SDS011;7095;51.388;6.196;2023-03-26T17:16:47;14.10;;;3.70;;
14040;SDS011;7095;51.388;6.196;2023-03-26T17:19:28;15.07;;;3.73;;
14040;SDS011;7095;51.388;6.196;2023-03-26T17:22:07;19.70;;;4.57;;